Time;durP1;ratioP1;P1;durP2;ratioP2;P2;SDS_P1;SDS_P2;PMS_P1;PMS_P2;Temp;Humidity;BMP_temperature;BMP_pressure;BME280_temperature;BME280_humidity;BME280_pressure;Samples;Min_cycle;Max_cycle;Signal;HPM_P1;HPM_P2
2021/01/18 00:00:09;;;;;;;18.25;8.30;;;;;;;;;;5050068;28;20478;-69
2021/01/18 00:02:35;;;;;;;12.85;7.63;;;;;;;;;;5051521;28;20037;-69
2021/01/18 00:05:02;;;;;;;15.50;7.93;;;;;;;;;;5052869;28;20052;-69
2021/01/18 00:07:28;;;;;;;15.50;7.72;;;;;;;;;;5051712;28;20076;-69
2021/01/18 00:09:54;;;;;;;11.02;7.15;;;;;;;;;;5051253;28;20111;-69
2021/01/18 00:12:21;;;;;;;12.63;8.27;;;;;;;;;;5048972;28;20048;-69
2021/01/18 00:14:47;;;;;;;18.02;8.43;;;;;;;;;;5050142;28;20091;-69
2021/01/18 00:17:13;;;;;;;14.00;7.82;;;;;;;;;;5051353;28;20071;-69
2021/01/18 00:19:39;;;;;;;15.55;8.27;;;;;;;;;;5052607;28;20396;-69
2021/01/18 00:22:06;;;;;;;15.10;8.00;;;;;;;;;;5054947;28;20041;-70
2021/01/18 00:24:32;;;;;;;17.50;8.30;;;;;;;;;;5052374;28;20041;-69
2021/01/18 00:26:58;;;;;;;17.35;7.72;;;;;;;;;;5049826;28;20083;-69
2021/01/18 00:29:24;;;;;;;15.18;8.32;;;;;;;;;;5053637;28;20063;-69
2021/01/18 00:31:50;;;;;;;15.32;7.68;;;;;;;;;;5050111;28;20079;-69
2021/01/18 00:34:17;;;;;;;14.48;7.88;;;;;;;;;;5052162;28;20139;-68
2021/01/18 00:36:44;;;;;;;14.20;7.93;;;;;;;;;;5052897;28;20551;-69
2021/01/18 00:39:11;;;;;;;13.07;7.63;;;;;;;;;;5052195;28;20060;-69
2021/01/18 00:41:40;;;;;;;14.35;8.32;;;;;;;;;;5050861;28;20253;-70
2021/01/18 00:44:07;;;;;;;15.23;7.95;;;;;;;;;;5050309;28;20120;-69
2021/01/18 00:46:33;;;;;;;17.23;8.15;;;;;;;;;;5051343;28;20045;-69
2021/01/18 00:49:00;;;;;;;14.50;6.85;;;;;;;;;;5050252;28;20431;-69
2021/01/18 00:51:34;;;;;;;13.52;7.72;;;;;;;;;;5044968;28;20045;-69
2021/01/18 00:54:00;;;;;;;19.00;9.10;;;;;;;;;;5049241;28;20056;-69
2021/01/18 00:56:31;;;;;;;14.65;7.53;;;;;;;;;;5047844;28;20052;-71
2021/01/18 00:59:20;;;;;;;19.02;9.60;;;;;;;;;;5045648;28;20052;-69
2021/01/18 01:01:52;;;;;;;16.85;8.48;;;;;;;;;;5050679;28;20519;-68
2021/01/18 01:04:19;;;;;;;16.27;9.23;;;;;;;;;;5048896;28;20041;-68
2021/01/18 01:06:46;;;;;;;15.52;8.27;;;;;;;;;;5052441;28;20048;-68
2021/01/18 01:09:12;;;;;;;15.70;8.75;;;;;;;;;;5050385;28;20045;-69
2021/01/18 01:11:45;;;;;;;16.63;8.32;;;;;;;;;;5049717;28;20053;-68
2021/01/18 01:14:11;;;;;;;15.68;8.27;;;;;;;;;;5048658;28;20488;-67
2021/01/18 01:16:38;;;;;;;16.27;8.45;;;;;;;;;;5046977;28;20128;-68
2021/01/18 01:19:04;;;;;;;14.07;7.32;;;;;;;;;;5045879;28;20046;-68
2021/01/18 01:21:31;;;;;;;19.02;9.82;;;;;;;;;;5048676;28;20052;-68
2021/01/18 01:24:00;;;;;;;16.98;9.13;;;;;;;;;;5047586;28;20075;-68
2021/01/18 01:26:26;;;;;;;19.20;9.20;;;;;;;;;;5048826;28;20033;-68
2021/01/18 01:28:53;;;;;;;18.40;9.88;;;;;;;;;;5048541;28;20033;-68
2021/01/18 01:31:19;;;;;;;20.65;9.70;;;;;;;;;;5048463;28;20044;-68
2021/01/18 01:33:46;;;;;;;19.17;8.98;;;;;;;;;;5048124;28;20029;-68
2021/01/18 01:36:12;;;;;;;20.90;10.18;;;;;;;;;;5048679;28;20055;-68
2021/01/18 01:38:38;;;;;;;17.15;8.93;;;;;;;;;;5049532;28;20036;-68
2021/01/18 01:41:05;;;;;;;20.48;9.70;;;;;;;;;;5048483;28;20045;-68
2021/01/18 01:43:31;;;;;;;20.77;9.43;;;;;;;;;;5046645;28;20061;-68
2021/01/18 01:45:57;;;;;;;21.38;9.45;;;;;;;;;;5045988;28;20107;-68
2021/01/18 01:48:25;;;;;;;17.30;9.52;;;;;;;;;;5045969;28;20091;-68
2021/01/18 01:50:51;;;;;;;18.20;9.32;;;;;;;;;;5044757;28;20053;-68
2021/01/18 01:53:20;;;;;;;17.48;9.60;;;;;;;;;;5045788;28;20120;-68
2021/01/18 01:55:47;;;;;;;19.20;9.50;;;;;;;;;;5049486;28;20047;-68
2021/01/18 01:58:14;;;;;;;22.30;9.30;;;;;;;;;;5048819;28;20094;-68
2021/01/18 02:00:41;;;;;;;22.02;9.02;;;;;;;;;;5047964;28;20502;-68
2021/01/18 02:03:08;;;;;;;19.70;9.98;;;;;;;;;;5046965;28;20041;-68
2021/01/18 02:05:36;;;;;;;20.10;9.70;;;;;;;;;;5048555;28;20508;-68
2021/01/18 02:08:03;;;;;;;19.27;10.25;;;;;;;;;;5047934;28;20044;-68
2021/01/18 02:10:30;;;;;;;19.42;9.60;;;;;;;;;;5056638;28;20052;-68
2021/01/18 02:13:00;;;;;;;19.40;10.18;;;;;;;;;;5048494;28;20068;-68
2021/01/18 02:15:31;;;;;;;20.23;9.30;;;;;;;;;;5045558;28;20045;-68
2021/01/18 02:18:02;;;;;;;19.55;10.00;;;;;;;;;;5044768;28;20662;-68
2021/01/18 02:20:47;;;;;;;20.60;9.80;;;;;;;;;;5046145;28;20091;-69
2021/01/18 02:23:34;;;;;;;20.50;10.15;;;;;;;;;;5048033;28;20048;-68
2021/01/18 02:26:05;;;;;;;19.35;9.98;;;;;;;;;;5046970;28;20118;-68
2021/01/18 02:28:31;;;;;;;19.90;8.95;;;;;;;;;;5039038;28;20052;-68
2021/01/18 02:31:16;;;;;;;26.27;9.65;;;;;;;;;;5044332;28;20052;-68
2021/01/18 02:34:02;;;;;;;19.27;9.88;;;;;;;;;;5047276;28;20064;-68
2021/01/18 02:36:32;;;;;;;19.17;10.30;;;;;;;;;;5047923;28;20084;-68
2021/01/18 02:39:04;;;;;;;23.10;10.40;;;;;;;;;;5047105;28;20052;-68
2021/01/18 02:41:38;;;;;;;22.58;11.43;;;;;;;;;;5046243;28;20065;-68
2021/01/18 02:44:06;;;;;;;20.45;9.90;;;;;;;;;;5045909;28;20041;-68
2021/01/18 02:46:33;;;;;;;24.15;10.55;;;;;;;;;;5047897;28;20037;-68
2021/01/18 02:49:01;;;;;;;17.13;9.93;;;;;;;;;;5047178;28;20059;-68
2021/01/18 02:51:28;;;;;;;21.48;11.15;;;;;;;;;;5048261;28;20033;-68
2021/01/18 02:53:57;;;;;;;21.00;10.37;;;;;;;;;;5045656;28;20068;-68
2021/01/18 02:56:31;;;;;;;20.00;10.07;;;;;;;;;;5048283;28;20523;-69
2021/01/18 02:58:58;;;;;;;26.10;11.80;;;;;;;;;;5048979;28;20501;-68
2021/01/18 03:01:40;;;;;;;24.95;11.13;;;;;;;;;;5048210;28;20128;-68
2021/01/18 03:04:15;;;;;;;23.02;10.27;;;;;;;;;;5045173;28;20493;-68
2021/01/18 03:06:47;;;;;;;22.50;11.07;;;;;;;;;;5047902;28;20041;-68
2021/01/18 03:09:23;;;;;;;21.48;11.13;;;;;;;;;;5046885;28;20098;-68
2021/01/18 03:11:49;;;;;;;21.50;10.77;;;;;;;;;;5048195;28;20037;-68
2021/01/18 03:14:21;;;;;;;21.90;11.52;;;;;;;;;;5046826;28;20451;-68
2021/01/18 03:16:49;;;;;;;21.27;11.27;;;;;;;;;;5047773;28;20107;-68
2021/01/18 03:19:24;;;;;;;20.42;11.15;;;;;;;;;;5056016;28;20102;-68
2021/01/18 03:21:51;;;;;;;21.60;10.98;;;;;;;;;;5048259;28;20088;-68
2021/01/18 03:24:20;;;;;;;18.45;9.00;;;;;;;;;;5049511;28;20120;-68
2021/01/18 03:26:47;;;;;;;19.15;10.15;;;;;;;;;;5049273;28;20423;-68
2021/01/18 03:29:13;;;;;;;25.65;11.55;;;;;;;;;;5050662;28;20064;-68
2021/01/18 03:31:39;;;;;;;22.23;11.32;;;;;;;;;;5050195;28;20069;-68
2021/01/18 03:34:05;;;;;;;23.50;11.77;;;;;;;;;;5050660;28;20052;-68
2021/01/18 03:36:32;;;;;;;27.30;11.63;;;;;;;;;;5050104;28;20041;-68
2021/01/18 03:38:58;;;;;;;30.73;12.70;;;;;;;;;;5048552;28;20049;-68
2021/01/18 03:41:25;;;;;;;23.80;11.77;;;;;;;;;;5049865;28;20056;-68
2021/01/18 03:43:51;;;;;;;17.35;9.18;;;;;;;;;;5051006;28;20083;-68
2021/01/18 03:46:17;;;;;;;31.80;12.95;;;;;;;;;;5048949;28;20433;-68
2021/01/18 03:48:44;;;;;;;26.45;12.40;;;;;;;;;;5049506;28;20033;-68
2021/01/18 03:51:10;;;;;;;25.92;12.48;;;;;;;;;;5047605;28;20036;-68
2021/01/18 03:53:36;;;;;;;28.77;12.57;;;;;;;;;;5048392;28;20052;-68
2021/01/18 03:56:03;;;;;;;22.58;11.23;;;;;;;;;;5049937;28;20485;-68
2021/01/18 03:58:29;;;;;;;27.58;12.60;;;;;;;;;;5051901;28;20411;-68
2021/01/18 04:00:55;;;;;;;28.33;12.75;;;;;;;;;;5050804;28;20663;-68
2021/01/18 04:03:21;;;;;;;27.00;12.23;;;;;;;;;;5048590;28;20057;-68
2021/01/18 04:05:48;;;;;;;28.38;13.63;;;;;;;;;;5051221;28;20907;-67
2021/01/18 04:08:14;;;;;;;28.77;13.40;;;;;;;;;;5050150;28;20041;-68
2021/01/18 04:10:41;;;;;;;26.35;13.68;;;;;;;;;;5050071;28;20056;-68
2021/01/18 04:13:08;;;;;;;32.67;13.77;;;;;;;;;;5051147;28;20136;-68
2021/01/18 04:15:34;;;;;;;26.20;12.55;;;;;;;;;;5050003;28;20041;-68
2021/01/18 04:18:01;;;;;;;28.10;13.60;;;;;;;;;;5051855;28;20064;-68
2021/01/18 04:20:27;;;;;;;28.98;13.13;;;;;;;;;;5051214;28;20352;-68
2021/01/18 04:22:54;;;;;;;28.83;12.98;;;;;;;;;;5049200;28;20061;-68
2021/01/18 04:25:21;;;;;;;30.88;14.07;;;;;;;;;;5051397;28;20036;-68
2021/01/18 04:28:01;;;;;;;35.50;13.50;;;;;;;;;;5048393;28;20436;-68
2021/01/18 04:30:28;;;;;;;28.77;14.07;;;;;;;;;;5048412;28;20045;-68
2021/01/18 04:32:59;;;;;;;29.08;13.68;;;;;;;;;;5048621;28;20460;-68
2021/01/18 04:35:26;;;;;;;26.38;12.85;;;;;;;;;;5050290;28;20036;-68
2021/01/18 04:37:54;;;;;;;29.08;13.20;;;;;;;;;;5051230;28;20044;-68
2021/01/18 04:40:22;;;;;;;28.88;13.65;;;;;;;;;;5051418;28;20037;-68
2021/01/18 04:42:48;;;;;;;24.65;10.73;;;;;;;;;;5048886;28;20052;-68
2021/01/18 04:45:16;;;;;;;34.38;12.60;;;;;;;;;;5047372;28;20053;-68
2021/01/18 04:47:43;;;;;;;30.13;13.07;;;;;;;;;;5049209;28;20118;-68
2021/01/18 04:50:12;;;;;;;33.30;13.55;;;;;;;;;;5049477;28;20051;-68
2021/01/18 04:52:44;;;;;;;31.00;13.80;;;;;;;;;;5049268;28;20056;-68
2021/01/18 04:55:19;;;;;;;27.85;13.45;;;;;;;;;;5048904;28;20063;-68
2021/01/18 04:57:51;;;;;;;33.92;13.18;;;;;;;;;;5048803;28;20091;-68
2021/01/18 05:00:19;;;;;;;29.75;14.27;;;;;;;;;;5049157;28;20045;-67
2021/01/18 05:02:46;;;;;;;30.27;14.23;;;;;;;;;;5049083;28;20040;-68
2021/01/18 05:05:12;;;;;;;;;;;;;;;;;;5050009;28;20404;-68
2021/01/18 05:08:00;;;;;;;32.72;13.70;;;;;;;;;;5048481;28;20371;-69
2021/01/18 05:10:26;;;;;;;34.40;13.82;;;;;;;;;;5047566;28;20049;-68
2021/01/18 05:12:55;;;;;;;32.25;13.85;;;;;;;;;;5048618;28;20041;-68
2021/01/18 05:15:22;;;;;;;29.85;13.88;;;;;;;;;;5048863;28;20045;-68
2021/01/18 05:17:49;;;;;;;33.42;14.15;;;;;;;;;;5047701;28;20098;-68
2021/01/18 05:20:16;;;;;;;35.08;14.20;;;;;;;;;;5048528;28;20037;-68
2021/01/18 05:22:43;;;;;;;;;;;;;;;;;;5051699;28;20052;-68
2021/01/18 05:25:10;;;;;;;28.58;12.50;;;;;;;;;;5049129;28;19924;-68
2021/01/18 05:27:56;;;;;;;30.30;14.05;;;;;;;;;;5047150;28;20061;-68
2021/01/18 05:30:23;;;;;;;35.25;14.43;;;;;;;;;;5042730;28;20075;-68
2021/01/18 05:32:59;;;;;;;29.98;13.23;;;;;;;;;;5048564;28;20052;-68
2021/01/18 05:35:25;;;;;;;30.95;13.40;;;;;;;;;;5048936;28;20500;-68
2021/01/18 05:37:55;;;;;;;33.80;14.68;;;;;;;;;;5048207;28;20139;-68
2021/01/18 05:40:21;;;;;;;30.50;14.45;;;;;;;;;;5045665;28;20053;-68
2021/01/18 05:42:49;;;;;;;31.33;14.07;;;;;;;;;;5047787;28;20296;-68
2021/01/18 05:45:24;;;;;;;33.97;14.48;;;;;;;;;;5044952;28;20496;-68
2021/01/18 05:47:51;;;;;;;31.95;15.40;;;;;;;;;;5045893;28;20047;-68
2021/01/18 05:50:18;;;;;;;31.58;14.40;;;;;;;;;;5049010;28;20068;-68
2021/01/18 05:52:44;;;;;;;37.35;15.48;;;;;;;;;;5048166;28;20580;-68
2021/01/18 05:55:18;;;;;;;36.75;15.32;;;;;;;;;;5049073;28;20072;-68
2021/01/18 05:57:55;;;;;;;44.38;17.17;;;;;;;;;;5046850;28;20120;-68
2021/01/18 06:00:34;;;;;;;37.60;16.80;;;;;;;;;;5046348;28;20056;-68
2021/01/18 06:03:05;;;;;;;40.33;15.65;;;;;;;;;;5043758;28;20552;-68
2021/01/18 06:05:32;;;;;;;36.42;16.05;;;;;;;;;;5045908;28;20037;-68
2021/01/18 06:08:15;;;;;;;41.25;16.45;;;;;;;;;;5044127;28;20055;-68
2021/01/18 06:10:42;;;;;;;42.00;17.13;;;;;;;;;;5046866;28;20394;-68
2021/01/18 06:13:22;;;;;;;43.80;18.15;;;;;;;;;;5048712;28;20517;-68
2021/01/18 06:16:05;;;;;;;44.50;17.95;;;;;;;;;;5047533;28;20172;-68
2021/01/18 06:18:32;;;;;;;43.47;18.42;;;;;;;;;;5048929;28;20578;-68
2021/01/18 06:21:06;;;;;;;45.78;18.30;;;;;;;;;;5048770;28;20048;-68
2021/01/18 06:23:32;;;;;;;48.95;18.95;;;;;;;;;;5046166;28;20041;-68
2021/01/18 06:25:59;;;;;;;42.95;18.67;;;;;;;;;;5047075;28;20064;-68
2021/01/18 06:28:30;;;;;;;47.78;18.95;;;;;;;;;;5045753;28;20576;-68
2021/01/18 06:30:57;;;;;;;43.33;17.85;;;;;;;;;;5044445;28;20041;-68
2021/01/18 06:33:34;;;;;;;37.55;17.73;;;;;;;;;;5046587;28;20037;-69
2021/01/18 06:36:14;;;;;;;39.10;17.75;;;;;;;;;;5048036;28;20045;-68
2021/01/18 06:38:42;;;;;;;45.97;18.55;;;;;;;;;;5047809;28;20064;-68
2021/01/18 06:41:09;;;;;;;38.55;16.23;;;;;;;;;;5046276;28;20052;-68
2021/01/18 06:43:35;;;;;;;44.20;18.40;;;;;;;;;;5047465;28;20549;-68
2021/01/18 06:46:15;;;;;;;27.33;12.70;;;;;;;;;;5047408;28;20489;-68
2021/01/18 06:48:43;;;;;;;39.55;16.98;;;;;;;;;;5045044;28;20096;-68
2021/01/18 06:51:13;;;;;;;41.50;17.48;;;;;;;;;;5046886;28;20033;-68
2021/01/18 06:53:44;;;;;;;42.03;17.52;;;;;;;;;;5046125;28;20037;-68
2021/01/18 06:56:22;;;;;;;47.80;18.38;;;;;;;;;;5047265;28;20076;-68
2021/01/18 06:58:48;;;;;;;;;;;;;;;;;;5048110;28;20500;-68
2021/01/18 07:01:22;;;;;;;45.25;16.95;;;;;;;;;;5049167;28;19943;-68
2021/01/18 07:03:54;;;;;;;40.25;16.73;;;;;;;;;;5047433;28;20037;-68
2021/01/18 07:06:30;;;;;;;45.03;19.27;;;;;;;;;;5048467;28;20053;-68
2021/01/18 07:09:05;;;;;;;48.15;17.95;;;;;;;;;;5047873;28;20037;-68
2021/01/18 07:11:58;;;;;;;45.85;19.13;;;;;;;;;;5047910;28;20505;-68
2021/01/18 07:14:27;;;;;;;44.45;18.25;;;;;;;;;;5048739;28;20549;-68
2021/01/18 07:16:57;;;;;;;48.25;19.88;;;;;;;;;;5048271;28;20140;-68
2021/01/18 07:19:29;;;;;;;43.47;18.05;;;;;;;;;;5046644;28;20053;-68
2021/01/18 07:22:11;;;;;;;55.17;19.63;;;;;;;;;;5046568;28;20052;-68
2021/01/18 07:24:38;;;;;;;49.80;20.05;;;;;;;;;;5049204;28;20136;-68
2021/01/18 07:27:23;;;;;;;42.70;18.48;;;;;;;;;;5045939;28;20056;-68
2021/01/18 07:29:49;;;;;;;42.50;17.63;;;;;;;;;;5047586;28;20047;-68
2021/01/18 07:32:16;;;;;;;47.22;18.45;;;;;;;;;;5045719;28;20462;-68
2021/01/18 07:34:43;;;;;;;45.08;18.58;;;;;;;;;;5046632;28;20130;-68
2021/01/18 07:37:10;;;;;;;46.57;19.07;;;;;;;;;;5048704;28;20056;-68
2021/01/18 07:39:38;;;;;;;;;;;;;;;;;;5048391;28;20056;-68
2021/01/18 07:42:06;;;;;;;42.30;17.77;;;;;;;;;;5047661;28;19924;-68
2021/01/18 07:44:42;;;;;;;48.55;19.23;;;;;;;;;;5046113;28;20037;-68
2021/01/18 07:47:09;;;;;;;52.35;19.05;;;;;;;;;;5048044;28;20440;-68
2021/01/18 07:49:40;;;;;;;49.85;18.02;;;;;;;;;;5046527;28;20041;-68
2021/01/18 07:52:12;;;;;;;47.38;17.67;;;;;;;;;;5054904;28;20057;-68
2021/01/18 07:54:38;;;;;;;47.65;17.83;;;;;;;;;;5043705;28;20104;-68
2021/01/18 07:57:25;;;;;;;49.33;19.15;;;;;;;;;;5048374;28;20489;-68
2021/01/18 08:00:10;;;;;;;49.08;19.17;;;;;;;;;;5048342;28;20049;-68
2021/01/18 08:02:37;;;;;;;50.95;19.50;;;;;;;;;;5048760;28;20045;-68
2021/01/18 08:05:22;;;;;;;46.65;19.58;;;;;;;;;;5048488;28;20128;-68
2021/01/18 08:08:01;;;;;;;45.90;18.73;;;;;;;;;;5047911;28;20056;-68
2021/01/18 08:10:47;;;;;;;51.28;19.88;;;;;;;;;;5050641;28;20044;-68
2021/01/18 08:13:41;;;;;;;57.72;20.92;;;;;;;;;;5052244;28;20547;-68
2021/01/18 08:16:20;;;;;;;51.22;20.70;;;;;;;;;;5051994;28;20053;-68
2021/01/18 08:18:50;;;;;;;47.45;19.33;;;;;;;;;;5049141;28;20102;-68
2021/01/18 08:24:01;;;;;;;52.45;20.85;;;;;;;;;;5048258;28;20041;-68
2021/01/18 08:26:27;;;;;;;54.28;21.10;;;;;;;;;;5046998;28;20104;-68
2021/01/18 08:28:54;;;;;;;52.63;21.10;;;;;;;;;;5049878;28;20159;-68
2021/01/18 08:31:21;;;;;;;55.22;22.30;;;;;;;;;;5047861;28;20131;-68
2021/01/18 08:33:47;;;;;;;47.78;20.63;;;;;;;;;;5049234;28;20500;-68
2021/01/18 08:36:30;;;;;;;48.10;20.10;;;;;;;;;;5050512;28;20041;-68
2021/01/18 08:39:17;;;;;;;49.10;20.23;;;;;;;;;;5048989;28;20636;-68
2021/01/18 08:41:45;;;;;;;47.63;20.85;;;;;;;;;;5049237;28;20045;-68
2021/01/18 08:44:12;;;;;;;47.33;20.25;;;;;;;;;;5050777;28;20037;-68
2021/01/18 08:46:39;;;;;;;53.92;20.02;;;;;;;;;;5047797;28;20119;-68
2021/01/18 08:49:25;;;;;;;48.92;20.73;;;;;;;;;;5049933;28;20044;-68
2021/01/18 08:51:52;;;;;;;45.13;20.10;;;;;;;;;;5050162;28;20056;-68
2021/01/18 08:54:28;;;;;;;45.97;19.40;;;;;;;;;;5048939;28;20413;-68
2021/01/18 08:57:14;;;;;;;51.60;20.45;;;;;;;;;;5050071;28;20087;-68
2021/01/18 08:59:40;;;;;;;48.97;20.80;;;;;;;;;;5049326;28;20557;-68
2021/01/18 09:02:06;;;;;;;43.78;18.98;;;;;;;;;;5050074;28;20150;-68
2021/01/18 09:04:33;;;;;;;44.28;19.13;;;;;;;;;;5049334;28;20109;-68
2021/01/18 09:07:05;;;;;;;44.70;19.75;;;;;;;;;;5049892;28;20124;-68
2021/01/18 09:09:32;;;;;;;41.15;18.92;;;;;;;;;;5045798;28;20049;-68
2021/01/18 09:12:01;;;;;;;37.92;19.27;;;;;;;;;;5048358;28;20500;-68
2021/01/18 09:14:30;;;;;;;38.05;19.70;;;;;;;;;;5047255;28;20513;-68
2021/01/18 09:17:06;;;;;;;45.17;20.02;;;;;;;;;;5049455;28;20049;-68
2021/01/18 09:19:32;;;;;;;48.28;20.48;;;;;;;;;;5047423;28;20074;-68
2021/01/18 09:21:59;;;;;;;43.40;19.25;;;;;;;;;;5048686;28;20056;-68
2021/01/18 09:24:26;;;;;;;45.88;20.40;;;;;;;;;;5050932;28;20037;-68
2021/01/18 09:26:52;;;;;;;44.08;19.13;;;;;;;;;;5050043;28;20067;-68
2021/01/18 09:29:22;;;;;;;33.05;15.02;;;;;;;;;;5048961;28;20136;-68
2021/01/18 09:31:49;;;;;;;49.08;19.08;;;;;;;;;;5047991;28;20508;-69
2021/01/18 09:34:16;;;;;;;42.03;19.75;;;;;;;;;;5050136;28;20048;-69
2021/01/18 09:36:43;;;;;;;41.95;19.08;;;;;;;;;;5050735;28;20095;-68
2021/01/18 09:39:19;;;;;;;46.55;20.13;;;;;;;;;;5050649;28;20115;-68
2021/01/18 09:42:06;;;;;;;39.35;19.35;;;;;;;;;;5048626;28;20556;-68
2021/01/18 09:44:32;;;;;;;44.50;20.25;;;;;;;;;;5049985;28;20041;-68
2021/01/18 09:46:59;;;;;;;40.40;19.57;;;;;;;;;;5048315;28;20496;-68
2021/01/18 09:49:27;;;;;;;45.72;21.50;;;;;;;;;;5049615;28;20294;-68
2021/01/18 09:51:54;;;;;;;47.75;21.08;;;;;;;;;;5046333;28;20057;-68
2021/01/18 09:54:21;;;;;;;48.65;21.27;;;;;;;;;;5044445;28;20048;-68
2021/01/18 09:56:50;;;;;;;40.60;19.60;;;;;;;;;;5049542;28;20136;-68
2021/01/18 09:59:18;;;;;;;42.53;20.27;;;;;;;;;;5049235;28;20092;-68
2021/01/18 10:01:48;;;;;;;58.17;22.50;;;;;;;;;;5046767;28;20076;-68
2021/01/18 10:04:23;;;;;;;49.17;21.85;;;;;;;;;;5049057;28;20049;-69
2021/01/18 10:06:50;;;;;;;41.05;20.02;;;;;;;;;;5048658;28;20044;-68
2021/01/18 10:09:19;;;;;;;48.50;21.47;;;;;;;;;;5047327;28;20044;-68
2021/01/18 10:11:49;;;;;;;44.80;20.27;;;;;;;;;;5024913;28;20839;-68
2021/01/18 10:14:23;;;;;;;48.70;21.38;;;;;;;;;;5049791;28;20037;-68
2021/01/18 10:17:15;;;;;;;45.20;20.55;;;;;;;;;;5047204;28;20049;-68
2021/01/18 10:19:42;;;;;;;47.25;20.83;;;;;;;;;;5045279;28;20053;-68
2021/01/18 10:22:16;;;;;;;33.77;15.40;;;;;;;;;;5048776;28;20048;-68
2021/01/18 10:24:53;;;;;;;41.58;19.02;;;;;;;;;;5046251;28;20086;-68
2021/01/18 10:27:29;;;;;;;46.10;21.40;;;;;;;;;;5049389;28;20607;-68
2021/01/18 10:30:11;;;;;;;40.78;18.15;;;;;;;;;;5046748;28;20602;-68
2021/01/18 10:32:44;;;;;;;45.40;20.30;;;;;;;;;;5048336;28;20381;-68
2021/01/18 10:35:19;;;;;;;41.25;19.05;;;;;;;;;;5050145;28;20373;-68
2021/01/18 10:37:45;;;;;;;51.83;21.02;;;;;;;;;;5047168;28;20056;-69
2021/01/18 10:40:12;;;;;;;41.03;20.60;;;;;;;;;;5046460;28;20128;-69
2021/01/18 10:42:52;;;;;;;63.38;27.65;;;;;;;;;;5047649;28;20053;-68
2021/01/18 10:45:19;;;;;;;58.67;24.52;;;;;;;;;;5048286;28;20053;-68
2021/01/18 10:47:52;;;;;;;52.78;20.92;;;;;;;;;;5046831;28;20045;-68
2021/01/18 10:50:22;;;;;;;39.80;20.27;;;;;;;;;;5048216;28;20504;-68
2021/01/18 10:52:49;;;;;;;45.72;20.90;;;;;;;;;;5043580;28;20055;-68
2021/01/18 10:55:17;;;;;;;41.40;19.23;;;;;;;;;;5044965;28;20041;-69
2021/01/18 10:57:48;;;;;;;38.60;18.85;;;;;;;;;;5045583;28;20507;-68
2021/01/18 11:00:15;;;;;;;45.00;20.10;;;;;;;;;;5046669;28;20086;-69
2021/01/18 11:02:52;;;;;;;39.42;19.50;;;;;;;;;;5044192;28;20045;-69
2021/01/18 11:05:19;;;;;;;45.83;19.55;;;;;;;;;;5048143;28;20052;-68
2021/01/18 11:07:46;;;;;;;42.13;20.33;;;;;;;;;;5045894;28;20094;-68
2021/01/18 11:10:21;;;;;;;41.65;20.23;;;;;;;;;;5044996;28;20072;-68
2021/01/18 11:12:55;;;;;;;45.92;19.88;;;;;;;;;;5049314;28;20409;-69
2021/01/18 11:15:21;;;;;;;43.97;20.70;;;;;;;;;;5047145;28;20386;-69
2021/01/18 11:17:51;;;;;;;41.83;20.55;;;;;;;;;;5048894;28;20461;-69
2021/01/18 11:20:24;;;;;;;51.63;20.52;;;;;;;;;;5046818;28;20045;-69
2021/01/18 11:22:51;;;;;;;48.22;23.08;;;;;;;;;;5048016;28;20073;-69
2021/01/18 11:25:17;;;;;;;47.67;24.23;;;;;;;;;;5047319;28;20122;-69
2021/01/18 11:27:44;;;;;;;34.40;17.57;;;;;;;;;;5048206;28;20041;-69
2021/01/18 11:30:10;;;;;;;54.42;22.98;;;;;;;;;;5047198;28;20303;-69
2021/01/18 11:32:37;;;;;;;56.20;23.42;;;;;;;;;;5045738;28;20052;-69
2021/01/18 11:35:03;;;;;;;48.37;21.90;;;;;;;;;;5047337;28;20049;-69
2021/01/18 11:37:31;;;;;;;50.97;23.90;;;;;;;;;;5046243;28;20444;-69
2021/01/18 11:39:57;;;;;;;;;;;;;;;;;;5047713;28;20163;-69
2021/01/18 11:42:24;;;;;;;55.28;24.65;;;;;;;;;;5049648;28;19971;-69
2021/01/18 11:44:50;;;;;;;51.67;22.67;;;;;;;;;;5048868;28;20045;-69
2021/01/18 11:47:16;;;;;;;58.55;25.50;;;;;;;;;;5051763;28;20374;-69
2021/01/18 11:49:43;;;;;;;63.53;28.53;;;;;;;;;;5052109;28;20045;-69
2021/01/18 11:52:09;;;;;;;62.23;28.13;;;;;;;;;;5050050;28;20037;-69
2021/01/18 11:54:36;;;;;;;40.87;19.27;;;;;;;;;;5050033;28;20646;-69
2021/01/18 11:57:04;;;;;;;66.72;28.77;;;;;;;;;;5052231;28;20094;-69
2021/01/18 11:59:30;;;;;;;;;;;;;;;;;;5052674;28;20567;-69
2021/01/18 12:01:56;;;;;;;64.93;25.08;;;;;;;;;;5049806;28;19927;-69
2021/01/18 12:04:23;;;;;;;64.60;26.27;;;;;;;;;;5048141;28;20489;-69
2021/01/18 12:06:49;;;;;;;65.53;27.42;;;;;;;;;;5048265;28;20637;-69
2021/01/18 12:09:15;;;;;;;67.30;26.70;;;;;;;;;;5049752;28;20041;-69
2021/01/18 12:11:42;;;;;;;71.88;27.45;;;;;;;;;;5051499;28;20120;-69
2021/01/18 12:14:08;;;;;;;66.20;26.92;;;;;;;;;;5051967;28;20099;-69
2021/01/18 12:16:34;;;;;;;63.53;25.95;;;;;;;;;;5051301;28;20373;-69
2021/01/18 12:19:01;;;;;;;65.10;26.67;;;;;;;;;;5050781;28;20052;-69
2021/01/18 12:21:27;;;;;;;73.25;29.23;;;;;;;;;;5050623;28;20045;-69
2021/01/18 12:23:54;;;;;;;74.45;28.65;;;;;;;;;;5050850;28;20044;-69
2021/01/18 12:26:20;;;;;;;65.90;27.80;;;;;;;;;;5050670;28;20049;-69
2021/01/18 12:28:47;;;;;;;63.10;27.67;;;;;;;;;;5050192;28;20049;-69
2021/01/18 12:31:15;;;;;;;70.38;28.35;;;;;;;;;;5051225;28;20041;-68
2021/01/18 12:33:42;;;;;;;69.85;28.35;;;;;;;;;;5049270;28;20049;-69
2021/01/18 12:36:08;;;;;;;72.07;28.58;;;;;;;;;;5049233;28;20053;-69
2021/01/18 12:38:35;;;;;;;69.70;30.30;;;;;;;;;;5050710;28;20041;-69
2021/01/18 12:41:01;;;;;;;69.85;27.23;;;;;;;;;;5050779;28;20056;-69
2021/01/18 12:43:28;;;;;;;71.22;27.88;;;;;;;;;;5049732;28;20088;-69
2021/01/18 12:45:56;;;;;;;72.93;29.02;;;;;;;;;;5049933;28;20037;-69
2021/01/18 12:48:23;;;;;;;74.78;27.63;;;;;;;;;;5048509;28;20055;-69
2021/01/18 12:50:49;;;;;;;75.32;30.38;;;;;;;;;;5049665;28;20056;-69
2021/01/18 12:53:43;;;;;;;71.63;29.27;;;;;;;;;;5048688;28;20040;-69
2021/01/18 12:56:02;;;;;;;75.80;29.55;;;;;;;;;;5048950;28;20272;-69
2021/01/18 12:58:29;;;;;;;76.85;29.73;;;;;;;;;;5048585;28;20455;-69
2021/01/18 13:00:55;;;;;;;83.03;30.25;;;;;;;;;;5047813;28;20506;-69
2021/01/18 13:03:21;;;;;;;82.85;30.88;;;;;;;;;;5050577;28;20115;-69
2021/01/18 13:05:51;;;;;;;60.50;24.17;;;;;;;;;;5047752;28;20045;-69
2021/01/18 13:08:18;;;;;;;82.03;31.30;;;;;;;;;;5048401;28;20389;-69
2021/01/18 13:10:44;;;;;;;84.23;30.53;;;;;;;;;;5050023;28;20447;-69
2021/01/18 13:13:10;;;;;;;93.25;32.75;;;;;;;;;;5047134;28;20671;-69
2021/01/18 13:15:37;;;;;;;81.00;31.42;;;;;;;;;;5049259;28;20047;-69
2021/01/18 13:18:03;;;;;;;78.55;29.02;;;;;;;;;;5049400;28;20041;-69
2021/01/18 13:20:29;;;;;;;85.53;29.90;;;;;;;;;;5048983;28;20103;-69
2021/01/18 13:22:55;;;;;;;88.38;31.75;;;;;;;;;;5051058;28;20801;-69
2021/01/18 13:25:22;;;;;;;86.57;31.75;;;;;;;;;;5049497;28;20033;-69
2021/01/18 13:27:48;;;;;;;92.40;30.77;;;;;;;;;;5049815;28;20551;-69
2021/01/18 13:30:14;;;;;;;82.95;31.23;;;;;;;;;;5049235;28;20513;-69
2021/01/18 13:32:40;;;;;;;82.13;30.48;;;;;;;;;;5048426;28;20037;-70
2021/01/18 13:35:07;;;;;;;89.32;32.60;;;;;;;;;;5050506;28;20052;-69
2021/01/18 13:37:35;;;;;;;91.00;30.50;;;;;;;;;;5049793;28;20427;-69
2021/01/18 13:40:03;;;;;;;86.72;30.08;;;;;;;;;;5048949;28;20048;-69
2021/01/18 13:42:29;;;;;;;84.35;31.38;;;;;;;;;;5049213;28;20051;-69
2021/01/18 13:44:55;;;;;;;94.13;30.90;;;;;;;;;;5049314;28;20044;-69
2021/01/18 13:47:22;;;;;;;80.30;30.60;;;;;;;;;;5047680;28;20110;-69
2021/01/18 13:49:51;;;;;;;89.63;31.77;;;;;;;;;;5050866;28;20443;-69
2021/01/18 13:52:17;;;;;;;86.75;30.38;;;;;;;;;;5047363;28;20128;-69
2021/01/18 13:54:44;;;;;;;94.15;32.90;;;;;;;;;;5049075;28;20052;-69
2021/01/18 13:57:10;;;;;;;89.35;31.58;;;;;;;;;;5049293;28;20056;-69
2021/01/18 13:59:36;;;;;;;88.13;29.98;;;;;;;;;;5047304;28;20122;-69
2021/01/18 14:02:02;;;;;;;80.15;29.92;;;;;;;;;;5045037;28;20539;-69
2021/01/18 14:04:45;;;;;;;82.20;30.27;;;;;;;;;;5046423;28;20041;-70
2021/01/18 14:07:11;;;;;;;81.70;29.83;;;;;;;;;;5048262;28;20053;-69
2021/01/18 14:09:37;;;;;;;81.15;28.38;;;;;;;;;;5048028;28;20128;-69
2021/01/18 14:12:10;;;;;;;85.88;29.70;;;;;;;;;;5048694;28;20114;-69
2021/01/18 14:14:36;;;;;;;79.53;28.45;;;;;;;;;;5046932;28;20566;-69
2021/01/18 14:17:04;;;;;;;88.13;29.75;;;;;;;;;;5046388;28;20056;-69
2021/01/18 14:19:30;;;;;;;76.57;28.90;;;;;;;;;;5045346;28;20041;-70
2021/01/18 14:21:57;;;;;;;82.93;29.80;;;;;;;;;;5046381;28;20052;-69
2021/01/18 14:24:24;;;;;;;89.60;31.17;;;;;;;;;;5047509;28;20511;-69
2021/01/18 14:26:50;;;;;;;92.45;31.13;;;;;;;;;;5047453;28;20056;-69
2021/01/18 14:29:16;;;;;;;82.70;28.17;;;;;;;;;;5048344;28;20051;-69
2021/01/18 14:31:44;;;;;;;81.85;30.40;;;;;;;;;;5048106;28;20129;-69
2021/01/18 14:34:10;;;;;;;85.07;31.02;;;;;;;;;;5046789;28;20045;-69
2021/01/18 14:36:37;;;;;;;86.78;30.58;;;;;;;;;;5047365;28;20064;-69